Airfield :
LOGIN :

Register | Disclaimer

   EN    FR    IT 

 










Legend :    VFR   Marginal VFR   IFR   Intensive IFR   Very Intensive IFR
Visi :
Ceiling :
>= 8 km
>= 3000ft
5 to 8 km
1000 to 3000 ft
1500m to 5 km
500 to 1000 ft
800 to 1500m
200 to 500 ft
< 800m
< 200 ft
Symbols :   Thunderstorms  Fog  Heavy snow  Heavy precipitations  Wind > 20 kt
SIGMETs :     Misc.  Thunderstorms  Icing  Turbulence  Mountain Waves  Volcanic Ashes







- Airport Elevation : 659 ft
- IATA code : LGG


EBLG - Liège

CURRENT METAR :
  • 230850Z 21024G35KT 9999 SCT036 14/06 Q1001 NOSIG

EXPIRED METARs :
  • 230820Z 21023G35KT 9999 SCT036 13/05 Q1001 NOSIG
  • 230750Z 20021G33KT 9999 SCT040 13/05 Q1000 NOSIG
  • 230720Z 20019KT CAVOK 12/04 Q1000 NOSIG
  • 230650Z 19022KT CAVOK 12/04 Q0999 NOSIG
  • 230620Z 19021G31KT CAVOK 12/04 Q0999 NOSIG

TAF TAF EBLG
Valid from the 23 at 06:00 until the 24 at 12:00 UTC


230510Z 2306/2412 20019KT 9999 SCT035
TEMPO 2306/2312 20020G38KT
TEMPO 2309/2311 SCT006 BKN009
PROB30
TEMPO 2309/2311 4000 SHRA
BECMG 2311/2313 25012KT
TEMPO 2312/2317 24015G25KT
BECMG 2323/2401 18006KT
BECMG 2404/2406 4000 BR SCT006 BKN009
TEMPO 2406/2412 2500 RA SHRA BKN005
BECMG 2410/2412 32005KT
No reported NOTAMs for that airfield.
2 SIGMETs reported for the Brussels FIR (EBBU) :
 
Severe turbulence
EBBU SIGMET 06 VALID 230729/231000 EBBR
EBBU BRUSSELS FIR SEV TURB FCST W OF LINE E00545 SFC/FL050 MOV NE 15KT WKN=
SIGMET 04 cancelation
EBBU SIGMET 05 VALID 230719/231119 EBBR
EBBU BRUSSELS FIR CNL SIGMET 04 VALID 230700/231000=



MET'MAP, your aeronautical weather chart ! - Copyright ORBIFLY December 2007 - Disclaimer

ORBIFLY MET'MAP TEAM :

Programming & Development : Alexandra Zaïnal
Concept & Development : Baudouin d'Aumeries
Co-Development & Prog : Marc-Olivier Méhu
Technical & hardware support : Manuel Goepfert

Contact : metmap@orbifly.com




SOURCES & CREDITS :

   NOAA